createdAt,value
2018-09-14T00:00:38.593Z,16.60
2018-09-14T00:03:07.837Z,16.70
2018-09-14T00:05:36.919Z,16.60
2018-09-14T00:08:05.489Z,16.70
2018-09-14T00:10:33.881Z,16.60
2018-09-14T00:13:02.493Z,16.70
2018-09-14T00:15:30.839Z,16.60
2018-09-14T00:17:59.318Z,16.70
2018-09-14T00:20:27.785Z,16.60
2018-09-14T00:22:56.257Z,16.50
2018-09-14T00:25:24.670Z,16.50
2018-09-14T00:27:53.037Z,16.30
2018-09-14T00:30:21.441Z,16.20
2018-09-14T00:32:49.788Z,16.10
2018-09-14T00:35:19.437Z,16.00
2018-09-14T00:37:47.754Z,16.00
2018-09-14T00:40:16.254Z,16.00
2018-09-14T00:42:44.549Z,16.00
2018-09-14T00:45:12.973Z,16.00
2018-09-14T00:47:41.377Z,16.00
2018-09-14T00:50:10.210Z,16.10
2018-09-14T00:52:38.525Z,16.10
2018-09-14T00:55:06.935Z,16.20
2018-09-14T00:57:35.285Z,16.30
2018-09-14T01:00:03.872Z,16.20
2018-09-14T01:02:32.213Z,16.30
2018-09-14T01:05:00.521Z,16.30
2018-09-14T01:07:29.161Z,16.30
2018-09-14T01:09:57.482Z,16.50
2018-09-14T01:12:25.907Z,16.40
2018-09-14T01:14:54.345Z,16.30
2018-09-14T01:17:22.789Z,16.30
2018-09-14T01:19:51.069Z,16.20
2018-09-14T01:22:19.494Z,16.20
2018-09-14T01:24:48.033Z,16.30
2018-09-14T01:27:16.474Z,16.30
2018-09-14T01:29:44.826Z,16.30
2018-09-14T01:32:13.222Z,16.20
2018-09-14T01:34:41.547Z,16.10
2018-09-14T01:37:09.943Z,16.10
2018-09-14T01:39:38.264Z,16.10
2018-09-14T01:42:06.885Z,16.10
2018-09-14T01:44:35.214Z,16.10
2018-09-14T01:47:03.793Z,16.10
2018-09-14T01:49:32.122Z,16.10
2018-09-14T01:52:01.928Z,16.20
2018-09-14T01:54:30.296Z,16.20
2018-09-14T01:56:58.717Z,16.10
2018-09-14T01:59:27.021Z,16.10
2018-09-14T02:01:55.333Z,16.30
2018-09-14T02:04:25.098Z,16.40
2018-09-14T02:06:53.437Z,16.50
2018-09-14T02:09:21.782Z,16.60
2018-09-14T02:11:50.203Z,16.60
2018-09-14T02:14:18.505Z,16.50
2018-09-14T02:16:46.834Z,16.60
2018-09-14T02:19:15.170Z,16.60
2018-09-14T02:21:43.489Z,16.70
2018-09-14T02:24:12.025Z,16.70
2018-09-14T02:26:40.386Z,16.70
2018-09-14T02:29:08.890Z,16.70
2018-09-14T02:31:37.204Z,16.70
2018-09-14T02:34:05.687Z,16.60
2018-09-14T02:36:34.024Z,16.60
2018-09-14T02:39:02.393Z,16.60
2018-09-14T02:41:30.701Z,16.60
2018-09-14T02:43:59.124Z,16.60
2018-09-14T02:46:27.554Z,16.50
2018-09-14T02:48:56.189Z,16.50
2018-09-14T02:51:24.536Z,16.50
2018-09-14T02:53:52.903Z,16.50
2018-09-14T02:56:21.267Z,16.50
2018-09-14T02:58:49.653Z,16.60
2018-09-14T03:01:18.197Z,16.50
2018-09-14T03:03:46.634Z,16.60
2018-09-14T03:06:15.047Z,16.60
2018-09-14T03:08:43.566Z,16.60
2018-09-14T03:11:11.905Z,16.50
2018-09-14T03:13:40.410Z,16.60
2018-09-14T03:16:08.762Z,16.60
2018-09-14T03:18:37.173Z,16.60
2018-09-14T03:21:05.678Z,16.60
2018-09-14T03:23:34.052Z,16.50
2018-09-14T03:26:02.365Z,16.50
2018-09-14T03:28:30.800Z,16.50
2018-09-14T03:30:59.127Z,16.50
2018-09-14T03:33:27.461Z,16.50
2018-09-14T03:35:55.838Z,16.60
2018-09-14T03:38:24.273Z,16.60
2018-09-14T03:40:52.599Z,16.70
2018-09-14T03:43:21.117Z,16.70
2018-09-14T03:45:49.826Z,16.70
2018-09-14T03:48:18.240Z,16.70
2018-09-14T03:50:46.610Z,16.60
2018-09-14T03:53:14.941Z,16.50
2018-09-14T03:55:43.326Z,16.50
2018-09-14T03:58:11.763Z,16.50
2018-09-14T04:00:40.357Z,16.50
2018-09-14T04:03:08.929Z,16.50
2018-09-14T04:05:37.834Z,16.50
2018-09-14T04:08:06.700Z,16.50
2018-09-14T04:10:35.155Z,16.40
2018-09-14T04:13:03.465Z,16.40
2018-09-14T04:15:31.814Z,16.40
2018-09-14T04:18:00.265Z,16.40
2018-09-14T04:20:28.662Z,16.50
2018-09-14T04:22:56.973Z,16.50
2018-09-14T04:25:25.423Z,16.50
2018-09-14T04:27:53.813Z,16.50
2018-09-14T04:30:22.134Z,16.40
2018-09-14T04:32:50.585Z,16.40
2018-09-14T04:35:18.923Z,16.40
2018-09-14T04:37:47.279Z,16.40
2018-09-14T04:40:15.754Z,16.40
2018-09-14T04:42:44.143Z,16.40
2018-09-14T04:45:13.253Z,16.40
2018-09-14T04:47:41.609Z,16.50
2018-09-14T04:50:09.930Z,16.50
2018-09-14T04:52:38.270Z,16.50
2018-09-14T04:55:06.613Z,16.50
2018-09-14T04:57:35.100Z,16.50
2018-09-14T05:00:03.526Z,16.60
2018-09-14T05:02:32.035Z,16.50
2018-09-14T05:05:00.426Z,16.50
2018-09-14T05:07:28.762Z,16.40
2018-09-14T05:09:57.177Z,16.40
2018-09-14T05:12:25.497Z,16.40
2018-09-14T05:14:53.853Z,16.40
2018-09-14T05:17:22.190Z,16.50
2018-09-14T05:19:50.702Z,16.60
2018-09-14T05:22:19.146Z,16.60
2018-09-14T05:24:47.598Z,16.60
2018-09-14T05:27:15.993Z,16.70
2018-09-14T05:29:44.341Z,16.70
2018-09-14T05:32:12.654Z,16.70
2018-09-14T05:34:41.009Z,16.60
2018-09-14T05:37:09.414Z,16.80
2018-09-14T05:39:37.937Z,16.80
2018-09-14T05:42:06.326Z,16.70
2018-09-14T05:44:34.650Z,16.70
2018-09-14T05:47:02.986Z,16.70
2018-09-14T05:49:31.421Z,16.90
2018-09-14T05:51:59.679Z,16.80
2018-09-14T05:54:28.084Z,16.90
2018-09-14T05:56:56.459Z,16.90
2018-09-14T05:59:24.821Z,16.80
2018-09-14T06:01:53.385Z,16.90
2018-09-14T06:04:21.764Z,17.00
2018-09-14T06:06:50.075Z,16.90
2018-09-14T06:09:18.398Z,17.00
2018-09-14T06:11:46.743Z,17.00
2018-09-14T06:14:15.416Z,16.90
2018-09-14T06:16:43.782Z,16.80
2018-09-14T06:19:12.113Z,16.80
2018-09-14T06:21:40.458Z,16.80
2018-09-14T06:24:08.781Z,16.90
2018-09-14T06:26:37.254Z,16.90
2018-09-14T06:29:05.775Z,17.10
2018-09-14T06:31:34.261Z,17.10
2018-09-14T06:34:02.712Z,17.10
2018-09-14T06:36:31.261Z,17.10
2018-09-14T06:38:59.705Z,17.20
2018-09-14T06:41:28.049Z,17.20
2018-09-14T06:43:56.393Z,17.20
2018-09-14T06:46:24.778Z,17.10
2018-09-14T06:48:53.117Z,17.10
2018-09-14T06:51:21.475Z,17.10
2018-09-14T06:53:49.834Z,17.00
2018-09-14T06:56:19.406Z,17.10
2018-09-14T06:58:47.858Z,17.20
2018-09-14T07:01:16.355Z,17.30
2018-09-14T07:03:44.764Z,17.40
2018-09-14T07:06:13.093Z,17.50
2018-09-14T07:08:41.525Z,17.80
2018-09-14T07:11:09.869Z,17.90
2018-09-14T07:13:38.254Z,17.80
2018-09-14T07:16:08.358Z,18.00
2018-09-14T07:18:36.705Z,17.90
2018-09-14T07:21:05.401Z,17.80
2018-09-14T07:23:33.714Z,17.60
2018-09-14T07:26:02.182Z,17.40
2018-09-14T07:28:30.474Z,17.30
2018-09-14T07:30:58.846Z,17.10
2018-09-14T07:33:27.213Z,16.90
2018-09-14T07:35:55.518Z,17.20
2018-09-14T07:38:23.843Z,17.40
2018-09-14T07:40:52.210Z,17.40
2018-09-14T07:43:20.601Z,17.40
2018-09-14T07:45:48.931Z,17.30
2018-09-14T07:48:17.301Z,17.30
2018-09-14T07:50:45.714Z,17.40
2018-09-14T07:53:14.076Z,17.30
2018-09-14T07:55:42.389Z,17.20
2018-09-14T07:58:10.723Z,17.10
2018-09-14T08:00:39.402Z,17.10
2018-09-14T08:03:07.984Z,17.20
2018-09-14T08:05:36.282Z,17.20
2018-09-14T08:08:04.771Z,17.30
2018-09-14T08:10:33.106Z,17.40
2018-09-14T08:13:01.457Z,17.50
2018-09-14T08:15:29.757Z,17.60
2018-09-14T08:17:58.221Z,17.60
2018-09-14T08:20:26.766Z,17.60
2018-09-14T08:22:55.099Z,17.60
2018-09-14T08:25:23.593Z,17.60
2018-09-14T08:27:51.970Z,17.70
2018-09-14T08:30:20.562Z,17.80
2018-09-14T08:32:49.042Z,17.90
2018-09-14T08:35:17.465Z,17.90
2018-09-14T08:37:45.829Z,17.80
2018-09-14T08:40:14.291Z,18.00
2018-09-14T08:42:42.828Z,18.20
2018-09-14T08:45:11.177Z,18.00
2018-09-14T08:47:39.597Z,18.20
2018-09-14T08:50:07.937Z,18.20
2018-09-14T08:52:36.285Z,18.40
2018-09-14T08:55:04.702Z,18.60
2018-09-14T08:57:33.061Z,18.70
2018-09-14T09:00:01.461Z,18.70
2018-09-14T09:02:29.982Z,18.80
2018-09-14T09:04:58.326Z,18.80
2018-09-14T09:07:26.698Z,18.80
2018-09-14T09:09:55.178Z,18.60
2018-09-14T09:12:23.550Z,18.70
2018-09-14T09:14:52.097Z,18.90
2018-09-14T09:17:20.445Z,19.10
2018-09-14T09:19:48.782Z,19.60
2018-09-14T09:22:17.226Z,20.00
2018-09-14T09:24:45.560Z,20.10
2018-09-14T09:27:13.957Z,20.10
2018-09-14T09:29:42.369Z,20.30
2018-09-14T09:32:10.699Z,20.70
2018-09-14T09:34:39.149Z,21.20
2018-09-14T09:37:07.530Z,21.20
2018-09-14T09:39:35.995Z,21.80
2018-09-14T09:42:05.986Z,21.80
2018-09-14T09:44:34.332Z,22.80
2018-09-14T09:47:02.702Z,22.70
2018-09-14T09:49:31.092Z,22.50
2018-09-14T09:51:59.557Z,22.80
2018-09-14T09:54:27.986Z,22.70
2018-09-14T09:56:56.487Z,22.20
2018-09-14T09:59:24.800Z,21.40
2018-09-14T10:01:58.662Z,21.10
2018-09-14T10:04:34.321Z,20.60
2018-09-14T10:07:02.670Z,20.30
2018-09-14T10:09:31.096Z,20.40
2018-09-14T10:11:59.633Z,20.30
2018-09-14T10:14:28.003Z,20.40
2018-09-14T10:16:56.450Z,20.50
2018-09-14T10:19:24.781Z,21.00
2018-09-14T10:21:53.228Z,20.70
2018-09-14T10:24:21.690Z,20.50
2018-09-14T10:26:50.058Z,20.30
2018-09-14T10:29:18.570Z,20.40
2018-09-14T10:31:46.935Z,20.70
2018-09-14T10:34:15.261Z,20.70
2018-09-14T10:36:43.601Z,21.00
2018-09-14T10:39:12.632Z,20.90
2018-09-14T10:41:41.009Z,21.80
2018-09-14T10:44:09.327Z,21.60
2018-09-14T10:46:37.662Z,21.00
2018-09-14T10:49:06.126Z,21.40
2018-09-14T10:51:34.545Z,21.90
2018-09-14T10:54:02.984Z,21.90
2018-09-14T10:56:31.459Z,21.80
2018-09-14T10:58:59.771Z,22.20
2018-09-14T11:01:28.290Z,22.20
2018-09-14T11:03:56.620Z,21.90
2018-09-14T11:06:25.050Z,21.70
2018-09-14T11:08:53.613Z,21.60
2018-09-14T11:11:21.934Z,21.90
2018-09-14T11:13:50.567Z,22.00
2018-09-14T11:16:18.886Z,21.70
2018-09-14T11:18:47.520Z,21.50
2018-09-14T11:21:15.638Z,20.80
2018-09-14T11:23:43.995Z,20.80
2018-09-14T11:26:12.346Z,20.70
2018-09-14T11:28:40.742Z,20.90
2018-09-14T11:31:09.089Z,20.80
2018-09-14T11:33:37.461Z,20.50
2018-09-14T11:36:05.805Z,20.30
2018-09-14T11:38:34.329Z,20.50
2018-09-14T11:41:02.688Z,20.50
2018-09-14T11:43:31.085Z,20.30
2018-09-14T11:45:59.425Z,20.50
2018-09-14T11:48:27.881Z,20.70
2018-09-14T11:50:56.473Z,20.60
2018-09-14T11:53:24.834Z,20.60
2018-09-14T11:55:53.474Z,20.30
2018-09-14T11:58:21.824Z,20.30
2018-09-14T12:00:50.921Z,20.20
2018-09-14T12:03:19.329Z,20.30
2018-09-14T12:05:47.675Z,20.70
2018-09-14T12:08:16.226Z,20.80
2018-09-14T12:10:44.578Z,20.90
2018-09-14T12:13:13.053Z,21.00
2018-09-14T12:15:41.549Z,21.00
2018-09-14T12:18:10.149Z,21.10
2018-09-14T12:20:38.829Z,21.10
2018-09-14T12:23:07.247Z,20.60
2018-09-14T12:25:37.288Z,20.90
2018-09-14T12:28:06.225Z,21.00
2018-09-14T12:30:34.696Z,20.70
2018-09-14T12:33:03.160Z,20.80
2018-09-14T12:35:31.643Z,20.70
2018-09-14T12:37:59.950Z,20.50
2018-09-14T12:40:28.291Z,21.00
2018-09-14T12:42:56.641Z,21.80
2018-09-14T12:45:25.103Z,22.00
2018-09-14T12:47:53.449Z,22.00
2018-09-14T12:50:21.898Z,22.00
2018-09-14T12:52:50.302Z,22.20
2018-09-14T12:55:18.638Z,21.60
2018-09-14T12:57:46.952Z,22.00
2018-09-14T13:00:15.347Z,22.50
2018-09-14T13:02:43.660Z,23.10
2018-09-14T13:05:13.401Z,23.90
2018-09-14T13:07:41.763Z,23.60
2018-09-14T13:10:10.108Z,22.90
2018-09-14T13:12:38.631Z,24.50
2018-09-14T13:15:07.001Z,24.50
2018-09-14T13:17:35.320Z,25.10
2018-09-14T13:20:03.733Z,25.30
2018-09-14T13:22:32.065Z,25.20
2018-09-14T13:25:00.486Z,25.90
2018-09-14T13:27:28.832Z,25.30
2018-09-14T13:29:57.506Z,26.10
2018-09-14T13:32:25.849Z,25.20
2018-09-14T13:34:54.446Z,24.00
2018-09-14T13:37:22.777Z,22.90
2018-09-14T13:39:51.126Z,22.50
2018-09-14T13:42:19.449Z,22.20
2018-09-14T13:44:47.785Z,22.30
2018-09-14T13:47:16.104Z,21.70
2018-09-14T13:49:44.926Z,21.70
2018-09-14T13:52:13.432Z,21.40
2018-09-14T13:54:41.745Z,21.30
2018-09-14T13:57:10.094Z,21.40
2018-09-14T13:59:38.477Z,21.20
2018-09-14T14:02:06.838Z,21.10
2018-09-14T14:04:35.300Z,21.00
2018-09-14T14:07:03.965Z,21.10
2018-09-14T14:09:32.351Z,21.20
2018-09-14T14:12:00.662Z,21.10
2018-09-14T14:14:29.123Z,21.10
2018-09-14T14:16:57.662Z,21.30
2018-09-14T14:19:25.977Z,21.70
2018-09-14T14:21:54.314Z,21.70
2018-09-14T14:24:22.662Z,21.70
2018-09-14T14:26:51.298Z,21.50
2018-09-14T14:29:19.846Z,21.40
2018-09-14T14:31:48.216Z,21.20
2018-09-14T14:34:16.729Z,21.30
2018-09-14T14:36:45.121Z,21.20
2018-09-14T14:39:13.459Z,21.00
2018-09-14T14:41:42.085Z,20.50
2018-09-14T14:44:10.580Z,21.00
2018-09-14T14:46:39.085Z,21.00
2018-09-14T14:49:07.451Z,21.00
2018-09-14T14:51:35.859Z,21.20
2018-09-14T14:54:04.409Z,21.20
2018-09-14T14:56:32.946Z,21.30
2018-09-14T14:59:01.249Z,21.30
2018-09-14T15:01:29.617Z,21.40
2018-09-14T15:03:58.004Z,21.10
2018-09-14T15:06:26.448Z,21.10
2018-09-14T15:08:54.787Z,21.10
2018-09-14T15:11:23.481Z,21.10
2018-09-14T15:13:51.917Z,21.20
2018-09-14T15:16:20.264Z,21.00
2018-09-14T15:18:48.715Z,21.00
2018-09-14T15:21:17.230Z,20.90
2018-09-14T15:23:45.574Z,21.20
2018-09-14T15:26:13.980Z,21.00
2018-09-14T15:28:42.484Z,21.10
2018-09-14T15:31:11.038Z,21.10
2018-09-14T15:33:39.438Z,20.90
2018-09-14T15:36:07.862Z,20.80
2018-09-14T15:38:36.342Z,20.70
2018-09-14T15:41:04.787Z,20.70
2018-09-14T15:43:33.175Z,20.70
2018-09-14T15:46:01.818Z,20.60
2018-09-14T15:48:30.279Z,20.60
2018-09-14T15:50:58.866Z,20.60
2018-09-14T15:53:27.230Z,20.60
2018-09-14T15:55:55.700Z,20.70
2018-09-14T15:58:24.093Z,20.70
2018-09-14T16:00:52.547Z,20.90
2018-09-14T16:03:21.558Z,20.80
2018-09-14T16:05:50.651Z,20.70
2018-09-14T16:08:19.006Z,20.60
2018-09-14T16:10:47.438Z,20.70
2018-09-14T16:13:15.757Z,20.70
2018-09-14T16:15:44.213Z,20.70
2018-09-14T16:18:12.637Z,20.60
2018-09-14T16:20:41.274Z,20.70
2018-09-14T16:23:09.696Z,20.90
2018-09-14T16:25:38.273Z,20.70
2018-09-14T16:28:06.689Z,20.70
2018-09-14T16:30:35.170Z,20.70
2018-09-14T16:33:03.751Z,20.50
2018-09-14T16:35:32.210Z,20.70
2018-09-14T16:38:01.098Z,20.70
2018-09-14T16:40:29.668Z,20.50
2018-09-14T16:42:58.021Z,20.40
2018-09-14T16:45:26.355Z,20.30
2018-09-14T16:47:55.014Z,20.30
2018-09-14T16:50:23.651Z,20.30
2018-09-14T16:52:51.951Z,20.30
2018-09-14T16:55:20.491Z,20.20
2018-09-14T16:57:48.832Z,20.10
2018-09-14T17:00:17.182Z,20.20
2018-09-14T17:02:45.648Z,20.20
2018-09-14T17:05:15.680Z,20.10
2018-09-14T17:07:45.492Z,20.20
2018-09-14T17:10:13.849Z,20.10
2018-09-14T17:12:42.708Z,20.10
2018-09-14T17:15:11.079Z,20.10
2018-09-14T17:17:39.494Z,20.00
2018-09-14T17:20:08.160Z,20.10
2018-09-14T17:22:36.641Z,20.00
2018-09-14T17:25:05.030Z,20.00
2018-09-14T17:27:33.457Z,20.00
2018-09-14T17:30:01.843Z,20.00
2018-09-14T17:32:30.300Z,20.00
2018-09-14T17:34:58.718Z,19.90
2018-09-14T17:37:27.067Z,19.90
2018-09-14T17:39:55.673Z,19.80
2018-09-14T17:42:24.086Z,19.80
2018-09-14T17:44:52.443Z,19.80
2018-09-14T17:47:20.811Z,19.80
2018-09-14T17:49:49.363Z,19.80
2018-09-14T17:52:17.982Z,19.80
2018-09-14T17:54:46.337Z,19.80
2018-09-14T17:57:14.965Z,19.90
2018-09-14T17:59:43.493Z,19.80
2018-09-14T18:02:11.918Z,19.80
2018-09-14T18:04:40.409Z,19.80
2018-09-14T18:07:08.842Z,19.80
2018-09-14T18:09:37.167Z,19.80
2018-09-14T18:12:05.655Z,19.80
2018-09-14T18:14:34.125Z,19.80
2018-09-14T18:17:02.614Z,19.70
2018-09-14T18:19:31.102Z,19.70
2018-09-14T18:21:59.565Z,19.80
2018-09-14T18:24:27.881Z,19.80
2018-09-14T18:26:56.245Z,19.80
2018-09-14T18:29:24.750Z,19.80
2018-09-14T18:31:53.130Z,19.90
2018-09-14T18:34:21.737Z,19.80
2018-09-14T18:36:50.238Z,19.80
2018-09-14T18:39:18.603Z,19.70
2018-09-14T18:41:47.262Z,19.80
2018-09-14T18:44:15.775Z,20.70
2018-09-14T18:46:44.219Z,19.70
2018-09-14T18:49:12.656Z,19.60
2018-09-14T18:51:41.002Z,19.60
2018-09-14T18:54:09.491Z,19.60
2018-09-14T18:56:37.802Z,19.60
2018-09-14T18:59:06.836Z,19.70
2018-09-14T19:01:35.352Z,19.60
2018-09-14T19:04:03.961Z,19.50
2018-09-14T19:06:32.323Z,19.50
2018-09-14T19:09:00.753Z,19.50
2018-09-14T19:11:29.123Z,19.40
2018-09-14T19:13:57.426Z,19.40
2018-09-14T19:16:26.051Z,19.30
2018-09-14T19:18:54.385Z,19.40
2018-09-14T19:21:22.728Z,19.40
2018-09-14T19:23:51.095Z,19.30
2018-09-14T19:26:19.425Z,19.30
2018-09-14T19:28:47.907Z,19.30
2018-09-14T19:31:16.443Z,19.30
2018-09-14T19:33:45.241Z,19.30
2018-09-14T19:36:13.739Z,19.30
2018-09-14T19:38:42.215Z,19.30
2018-09-14T19:41:10.758Z,19.40
2018-09-14T19:43:40.824Z,19.40
2018-09-14T19:46:09.410Z,19.50
2018-09-14T19:48:37.799Z,19.50
2018-09-14T19:51:06.239Z,19.40
2018-09-14T19:53:34.611Z,19.30
2018-09-14T19:56:03.001Z,19.40
2018-09-14T19:58:31.338Z,19.50
2018-09-14T20:00:59.677Z,19.50
2018-09-14T20:03:28.085Z,19.40
2018-09-14T20:05:57.296Z,19.30
2018-09-14T20:08:25.659Z,19.20
2018-09-14T20:10:54.066Z,19.10
2018-09-14T20:13:22.436Z,19.10
2018-09-14T20:15:50.970Z,19.00
2018-09-14T20:18:19.352Z,19.00
2018-09-14T20:20:47.715Z,19.20
2018-09-14T20:23:16.315Z,19.20
2018-09-14T20:25:44.679Z,19.40
2018-09-14T20:28:13.203Z,19.20
2018-09-14T20:30:42.241Z,19.10
2018-09-14T20:33:10.869Z,19.20
2018-09-14T20:35:39.374Z,19.20
2018-09-14T20:38:07.932Z,19.30
2018-09-14T20:40:36.437Z,19.20
2018-09-14T20:43:04.979Z,19.20
2018-09-14T20:45:33.326Z,19.20
2018-09-14T20:48:01.983Z,19.40
2018-09-14T20:50:30.313Z,19.30
2018-09-14T20:52:58.710Z,19.20
2018-09-14T20:55:27.217Z,19.10
2018-09-14T20:57:55.676Z,19.10
2018-09-14T21:00:24.762Z,19.00
2018-09-14T21:02:53.793Z,19.00
2018-09-14T21:05:22.590Z,19.10
2018-09-14T21:07:51.065Z,19.00
2018-09-14T21:10:19.490Z,18.80
2018-09-14T21:12:48.071Z,18.80
2018-09-14T21:15:16.786Z,18.70
2018-09-14T21:17:45.190Z,18.70
2018-09-14T21:20:13.672Z,18.80
2018-09-14T21:22:42.605Z,18.80
2018-09-14T21:25:11.067Z,18.80
2018-09-14T21:27:39.516Z,18.90
2018-09-14T21:30:08.158Z,18.90
2018-09-14T21:32:37.917Z,18.80
2018-09-14T21:35:06.501Z,18.70
2018-09-14T21:37:34.817Z,18.90
2018-09-14T21:40:03.286Z,19.00
2018-09-14T21:42:31.829Z,18.90
2018-09-14T21:45:00.186Z,18.90
2018-09-14T21:47:28.902Z,18.90
2018-09-14T21:49:57.367Z,18.90
2018-09-14T21:52:26.083Z,18.70
2018-09-14T21:54:54.587Z,18.60
2018-09-14T21:57:23.246Z,18.60
2018-09-14T21:59:51.613Z,18.60
2018-09-14T22:02:20.091Z,18.50
2018-09-14T22:04:48.448Z,18.60
2018-09-14T22:07:17.019Z,18.90
2018-09-14T22:09:45.355Z,18.80
2018-09-14T22:12:13.738Z,18.90
2018-09-14T22:14:42.190Z,18.90
2018-09-14T22:17:10.598Z,19.00
2018-09-14T22:19:39.059Z,18.90
2018-09-14T22:22:07.555Z,18.90
2018-09-14T22:24:35.883Z,18.90
2018-09-14T22:27:04.245Z,18.90
2018-09-14T22:29:32.843Z,18.90
2018-09-14T22:32:01.307Z,18.80
2018-09-14T22:34:29.702Z,18.80
2018-09-14T22:36:58.007Z,18.80
2018-09-14T22:39:26.360Z,18.70
2018-09-14T22:41:54.716Z,18.70
2018-09-14T22:44:23.169Z,18.70
2018-09-14T22:46:51.769Z,18.70
2018-09-14T22:49:20.182Z,18.70
2018-09-14T22:51:48.669Z,18.70
2018-09-14T22:54:17.186Z,18.70
2018-09-14T22:56:45.639Z,18.60
2018-09-14T22:59:14.039Z,18.60
2018-09-14T23:01:42.495Z,18.60
2018-09-14T23:04:10.855Z,18.60
2018-09-14T23:06:39.282Z,18.60
2018-09-14T23:09:08.178Z,18.60
2018-09-14T23:11:36.618Z,18.60
2018-09-14T23:14:05.025Z,18.60
2018-09-14T23:16:33.386Z,18.60
2018-09-14T23:19:01.899Z,18.60
2018-09-14T23:21:30.190Z,18.50
2018-09-14T23:23:58.767Z,18.50
2018-09-14T23:26:27.852Z,18.50
2018-09-14T23:28:56.235Z,18.40
2018-09-14T23:31:24.565Z,18.40
2018-09-14T23:33:53.021Z,18.40
2018-09-14T23:36:21.383Z,18.40
2018-09-14T23:38:49.769Z,18.40
2018-09-14T23:41:18.125Z,18.50
2018-09-14T23:43:47.792Z,18.50
2018-09-14T23:46:16.268Z,18.30
2018-09-14T23:48:44.742Z,18.40
2018-09-14T23:51:13.327Z,18.50
2018-09-14T23:53:41.668Z,18.40
2018-09-14T23:56:10.011Z,18.50
2018-09-14T23:58:38.454Z,18.40
